createdAt,value
2022-12-03T00:00:08.936Z,100.00
2022-12-03T00:03:14.443Z,100.00
2022-12-03T00:06:17.532Z,100.00
2022-12-03T00:09:19.773Z,100.00
2022-12-03T00:12:21.739Z,100.00
2022-12-03T00:15:24.071Z,100.00
2022-12-03T00:18:25.968Z,100.00
2022-12-03T00:21:28.312Z,100.00
2022-12-03T00:24:30.286Z,100.00
2022-12-03T00:27:33.013Z,100.00
2022-12-03T00:30:35.386Z,100.00
2022-12-03T00:33:37.682Z,100.00
2022-12-03T00:36:39.661Z,100.00
2022-12-03T00:39:41.873Z,100.00
2022-12-03T00:42:43.777Z,100.00
2022-12-03T00:45:46.058Z,100.00
2022-12-03T00:48:48.193Z,100.00
2022-12-03T00:51:50.549Z,100.00
2022-12-03T00:54:52.629Z,100.00
2022-12-03T00:57:55.060Z,100.00
2022-12-03T01:00:56.981Z,100.00
2022-12-03T01:03:59.672Z,100.00
2022-12-03T01:07:01.589Z,100.00
2022-12-03T01:10:05.016Z,100.00
2022-12-03T01:13:06.966Z,100.00
2022-12-03T01:16:09.575Z,100.00
2022-12-03T01:19:16.117Z,100.00
2022-12-03T01:22:18.841Z,100.00
2022-12-03T01:25:20.860Z,100.00
2022-12-03T01:28:26.860Z,100.00
2022-12-03T01:31:47.381Z,100.00
2022-12-03T01:34:52.010Z,100.00
2022-12-03T01:37:54.168Z,100.00
2022-12-03T01:40:56.504Z,100.00
2022-12-03T01:43:58.831Z,100.00
2022-12-03T01:47:03.343Z,100.00
2022-12-03T01:50:06.821Z,100.00
2022-12-03T01:53:11.546Z,100.00
2022-12-03T01:56:17.601Z,100.00
2022-12-03T01:59:20.625Z,100.00
2022-12-03T02:02:27.094Z,100.00
2022-12-03T02:05:33.305Z,100.00
2022-12-03T02:08:36.321Z,100.00
2022-12-03T02:11:43.528Z,100.00
2022-12-03T02:14:46.864Z,100.00
2022-12-03T02:17:49.165Z,100.00
2022-12-03T02:21:01.918Z,100.00
2022-12-03T02:24:03.778Z,100.00
2022-12-03T02:27:06.328Z,100.00
2022-12-03T02:30:09.129Z,100.00
2022-12-03T02:33:11.457Z,100.00
2022-12-03T02:36:13.449Z,100.00
2022-12-03T02:39:15.749Z,100.00
2022-12-03T02:42:37.982Z,100.00
2022-12-03T02:45:42.682Z,100.00
2022-12-03T02:48:44.638Z,100.00
2022-12-03T02:51:46.954Z,100.00
2022-12-03T02:54:49.241Z,100.00
2022-12-03T02:57:51.709Z,100.00
2022-12-03T03:00:54.280Z,100.00
2022-12-03T03:03:56.523Z,100.00
2022-12-03T03:06:58.905Z,100.00
2022-12-03T03:10:01.899Z,100.00
2022-12-03T03:13:06.597Z,100.00
2022-12-03T03:16:09.096Z,100.00
2022-12-03T03:19:11.198Z,100.00
2022-12-03T03:22:14.068Z,100.00
2022-12-03T03:25:18.338Z,100.00
2022-12-03T03:28:20.599Z,100.00
2022-12-03T03:31:23.752Z,100.00
2022-12-03T03:34:26.212Z,100.00
2022-12-03T03:37:28.405Z,100.00
2022-12-03T03:40:30.964Z,100.00
2022-12-03T03:43:34.817Z,100.00
2022-12-03T03:46:37.621Z,100.00
2022-12-03T03:49:39.867Z,100.00
2022-12-03T03:52:42.705Z,100.00
2022-12-03T03:55:44.886Z,100.00
2022-12-03T03:58:47.113Z,100.00
2022-12-03T04:01:49.137Z,100.00
2022-12-03T04:04:51.979Z,100.00
2022-12-03T04:07:54.193Z,100.00
2022-12-03T04:11:15.068Z,100.00
2022-12-03T04:14:17.028Z,100.00
2022-12-03T04:17:19.336Z,100.00
2022-12-03T04:20:21.377Z,100.00
2022-12-03T04:23:29.242Z,100.00
2022-12-03T04:26:52.153Z,100.00
2022-12-03T04:29:54.837Z,100.00
2022-12-03T04:33:16.532Z,100.00
2022-12-03T04:36:18.697Z,100.00
2022-12-03T04:39:20.654Z,100.00
2022-12-03T04:42:24.177Z,100.00
2022-12-03T04:45:26.157Z,100.00
2022-12-03T04:48:29.071Z,100.00
2022-12-03T04:51:31.114Z,100.00
2022-12-03T04:54:33.785Z,100.00
2022-12-03T04:57:35.675Z,100.00
2022-12-03T05:00:37.937Z,100.00
2022-12-03T05:03:39.930Z,100.00
2022-12-03T05:06:42.659Z,100.00
2022-12-03T05:09:44.684Z,100.00
2022-12-03T05:12:47.266Z,100.00
2022-12-03T05:15:49.196Z,100.00
2022-12-03T05:18:51.459Z,100.00
2022-12-03T05:21:53.432Z,100.00
2022-12-03T05:24:56.042Z,100.00
2022-12-03T05:27:58.563Z,100.00
2022-12-03T05:31:01.021Z,100.00
2022-12-03T05:34:03.049Z,100.00
2022-12-03T05:37:05.308Z,100.00
2022-12-03T05:40:07.593Z,100.00
2022-12-03T05:43:09.858Z,100.00
2022-12-03T05:46:11.965Z,100.00
2022-12-03T05:49:14.302Z,100.00
2022-12-03T05:52:16.244Z,100.00
2022-12-03T05:55:18.759Z,100.00
2022-12-03T05:58:20.778Z,100.00
2022-12-03T06:01:23.041Z,100.00
2022-12-03T06:04:26.974Z,100.00
2022-12-03T06:07:29.007Z,100.00
2022-12-03T06:10:31.554Z,100.00
2022-12-03T06:13:33.525Z,100.00
2022-12-03T06:16:36.395Z,100.00
2022-12-03T06:19:38.493Z,100.00
2022-12-03T06:22:40.758Z,100.00
2022-12-03T06:25:42.704Z,100.00
2022-12-03T06:28:46.428Z,100.00
2022-12-03T06:31:48.355Z,100.00
2022-12-03T06:34:50.765Z,100.00
2022-12-03T06:37:52.814Z,100.00
2022-12-03T06:40:55.062Z,100.00
2022-12-03T06:43:57.097Z,100.00
2022-12-03T06:46:59.447Z,100.00
2022-12-03T06:50:01.587Z,100.00
2022-12-03T06:53:04.209Z,100.00
2022-12-03T06:56:06.220Z,100.00
2022-12-03T06:59:08.558Z,100.00
2022-12-03T07:02:11.801Z,100.00
2022-12-03T07:05:14.113Z,100.00
2022-12-03T07:08:16.140Z,100.00
2022-12-03T07:11:39.814Z,100.00
2022-12-03T07:14:41.728Z,100.00
2022-12-03T07:17:44.370Z,100.00
2022-12-03T07:20:46.471Z,100.00
2022-12-03T07:23:48.705Z,100.00
2022-12-03T07:26:50.733Z,100.00
2022-12-03T07:29:53.023Z,100.00
2022-12-03T07:32:55.176Z,100.00
2022-12-03T07:35:57.453Z,100.00
2022-12-03T07:39:00.644Z,100.00
2022-12-03T07:42:03.056Z,100.00
2022-12-03T07:45:05.703Z,100.00
2022-12-03T07:48:08.583Z,100.00
2022-12-03T07:51:15.306Z,100.00
2022-12-03T07:54:19.513Z,100.00
2022-12-03T07:57:21.457Z,100.00
2022-12-03T08:00:24.105Z,100.00
2022-12-03T08:03:26.310Z,100.00
2022-12-03T08:06:28.242Z,99.91
2022-12-03T08:09:31.447Z,100.00
2022-12-03T08:12:41.282Z,99.80
2022-12-03T08:15:43.909Z,99.20
2022-12-03T08:18:47.047Z,97.86
2022-12-03T08:21:49.274Z,96.30
2022-12-03T08:24:51.496Z,95.47
2022-12-03T08:27:56.624Z,94.22
2022-12-03T08:31:01.790Z,93.30
2022-12-03T08:34:15.704Z,93.10
2022-12-03T08:37:18.895Z,93.22
2022-12-03T08:40:32.731Z,92.06
2022-12-03T08:43:41.879Z,92.49
2022-12-03T08:46:44.686Z,91.71
2022-12-03T08:49:53.656Z,91.93
2022-12-03T08:53:20.036Z,93.26
2022-12-03T08:56:26.346Z,93.94
2022-12-03T08:59:30.571Z,95.77
2022-12-03T09:02:34.176Z,94.48
2022-12-03T09:05:37.331Z,94.11
2022-12-03T09:08:39.389Z,93.00
2022-12-03T09:11:43.246Z,91.48
2022-12-03T09:14:45.148Z,89.83
2022-12-03T09:17:48.841Z,90.35
2022-12-03T09:20:50.733Z,89.36
2022-12-03T09:23:52.968Z,87.91
2022-12-03T09:26:54.899Z,87.08
2022-12-03T09:29:57.896Z,86.88
2022-12-03T09:33:00.220Z,85.95
2022-12-03T09:36:02.498Z,85.34
2022-12-03T09:39:04.915Z,84.71
2022-12-03T09:42:07.526Z,85.31
2022-12-03T09:45:10.881Z,84.64
2022-12-03T09:48:18.095Z,83.64
2022-12-03T09:51:20.125Z,82.02
2022-12-03T09:54:24.386Z,82.12
2022-12-03T09:57:26.284Z,82.10
2022-12-03T10:00:30.149Z,80.82
2022-12-03T10:03:32.495Z,79.63
2022-12-03T10:06:34.449Z,78.52
2022-12-03T10:09:36.792Z,77.06
2022-12-03T10:12:38.727Z,73.41
2022-12-03T10:15:41.027Z,73.26
2022-12-03T10:18:47.272Z,73.04
2022-12-03T10:21:49.545Z,72.87
2022-12-03T10:25:06.075Z,73.55
2022-12-03T10:28:08.331Z,74.39
2022-12-03T10:31:11.447Z,74.70
2022-12-03T10:34:13.699Z,74.99
2022-12-03T10:37:15.661Z,75.85
2022-12-03T10:40:24.381Z,75.77
2022-12-03T10:43:28.464Z,74.87
2022-12-03T10:46:34.155Z,75.03
2022-12-03T10:49:36.476Z,74.90
2022-12-03T10:52:39.603Z,74.47
2022-12-03T10:55:43.188Z,75.20
2022-12-03T10:58:45.843Z,76.42
2022-12-03T11:01:48.249Z,77.03
2022-12-03T11:04:51.277Z,77.34
2022-12-03T11:07:53.781Z,77.53
2022-12-03T11:10:57.334Z,77.59
2022-12-03T11:14:00.158Z,77.52
2022-12-03T11:17:02.450Z,77.19
2022-12-03T11:20:04.904Z,76.46
2022-12-03T11:23:10.300Z,76.04
2022-12-03T11:26:19.292Z,75.94
2022-12-03T11:29:43.257Z,76.38
2022-12-03T11:32:45.188Z,74.32
2022-12-03T11:36:02.707Z,69.73
2022-12-03T11:39:04.701Z,64.72
2022-12-03T11:42:28.437Z,63.05
2022-12-03T11:45:35.464Z,62.13
2022-12-03T11:48:44.208Z,60.91
2022-12-03T11:51:46.138Z,60.78
2022-12-03T11:54:50.251Z,60.81
2022-12-03T11:57:57.061Z,61.69
2022-12-03T12:01:00.688Z,64.59
2022-12-03T12:04:04.074Z,65.78
2022-12-03T12:07:06.602Z,67.40
2022-12-03T12:10:08.969Z,67.55
2022-12-03T12:13:26.302Z,67.40
2022-12-03T12:16:39.714Z,67.94
2022-12-03T12:19:43.158Z,68.24
2022-12-03T12:22:45.485Z,68.68
2022-12-03T12:25:53.750Z,69.39
2022-12-03T12:28:56.629Z,70.40
2022-12-03T12:32:00.769Z,72.04
2022-12-03T12:35:14.845Z,72.78
2022-12-03T12:38:18.326Z,73.11
2022-12-03T12:41:20.497Z,73.59
2022-12-03T12:44:23.593Z,74.40
2022-12-03T12:47:26.032Z,74.74
2022-12-03T12:50:31.017Z,75.58
2022-12-03T12:53:34.832Z,76.34
2022-12-03T12:56:37.077Z,77.70
2022-12-03T12:59:39.487Z,78.08
2022-12-03T13:02:44.272Z,79.16
2022-12-03T13:05:47.742Z,80.51
2022-12-03T13:08:50.338Z,80.66
2022-12-03T13:12:03.977Z,80.22
2022-12-03T13:15:07.850Z,81.11
2022-12-03T13:18:36.344Z,80.61
2022-12-03T13:21:39.865Z,80.01
2022-12-03T13:24:48.028Z,79.86
2022-12-03T13:27:50.548Z,80.65
2022-12-03T13:30:52.791Z,80.88
2022-12-03T13:33:55.489Z,81.11
2022-12-03T13:36:58.802Z,80.54
2022-12-03T13:40:08.168Z,80.45
2022-12-03T13:43:12.307Z,80.42
2022-12-03T13:46:16.069Z,80.73
2022-12-03T13:49:21.613Z,81.44
2022-12-03T13:52:26.756Z,81.67
2022-12-03T13:55:30.546Z,82.11
2022-12-03T13:58:32.470Z,82.37
2022-12-03T14:01:35.998Z,82.21
2022-12-03T14:04:39.068Z,81.70
2022-12-03T14:07:41.087Z,82.25
2022-12-03T14:10:43.404Z,82.04
2022-12-03T14:13:45.456Z,82.63
2022-12-03T14:16:47.876Z,83.07
2022-12-03T14:19:50.068Z,82.91
2022-12-03T14:22:58.860Z,83.25
2022-12-03T14:26:01.356Z,84.23
2022-12-03T14:29:08.545Z,84.27
2022-12-03T14:32:11.271Z,84.87
2022-12-03T14:35:13.633Z,85.31
2022-12-03T14:38:15.588Z,85.29
2022-12-03T14:41:36.878Z,84.53
2022-12-03T14:44:39.628Z,85.12
2022-12-03T14:47:42.176Z,85.14
2022-12-03T14:50:44.091Z,85.32
2022-12-03T14:53:46.432Z,85.55
2022-12-03T14:56:48.490Z,85.79
2022-12-03T14:59:50.944Z,86.27
2022-12-03T15:02:53.023Z,86.78
2022-12-03T15:05:55.723Z,87.18
2022-12-03T15:08:57.704Z,87.44
2022-12-03T15:12:00.085Z,87.23
2022-12-03T15:15:02.180Z,87.89
2022-12-03T15:18:07.035Z,87.84
2022-12-03T15:21:09.373Z,88.46
2022-12-03T15:24:11.709Z,88.39
2022-12-03T15:27:13.656Z,88.65
2022-12-03T15:30:16.238Z,88.80
2022-12-03T15:33:18.275Z,89.52
2022-12-03T15:36:20.594Z,89.69
2022-12-03T15:39:22.698Z,89.83
2022-12-03T15:42:24.929Z,90.57
2022-12-03T15:45:26.860Z,91.01
2022-12-03T15:48:29.526Z,91.29
2022-12-03T15:51:31.749Z,92.22
2022-12-03T15:54:36.874Z,91.84
2022-12-03T15:57:39.463Z,92.32
2022-12-03T16:00:42.483Z,92.92
2022-12-03T16:03:46.255Z,92.39
2022-12-03T16:06:48.225Z,92.78
2022-12-03T16:09:50.772Z,93.78
2022-12-03T16:12:52.700Z,93.91
2022-12-03T16:15:55.054Z,93.85
2022-12-03T16:18:57.120Z,94.06
2022-12-03T16:21:59.347Z,93.85
2022-12-03T16:25:03.144Z,94.23
2022-12-03T16:28:05.745Z,94.75
2022-12-03T16:31:07.829Z,94.61
2022-12-03T16:34:10.089Z,95.13
2022-12-03T16:37:12.169Z,95.74
2022-12-03T16:40:22.229Z,96.19
2022-12-03T16:43:24.124Z,96.19
2022-12-03T16:46:26.670Z,96.24
2022-12-03T16:49:28.888Z,95.97
2022-12-03T16:52:32.116Z,95.29
2022-12-03T16:55:34.026Z,95.72
2022-12-03T16:58:36.239Z,96.08
2022-12-03T17:01:38.236Z,96.49
2022-12-03T17:04:42.903Z,96.65
2022-12-03T17:07:45.330Z,96.82
2022-12-03T17:10:47.660Z,97.83
2022-12-03T17:13:50.826Z,97.08
2022-12-03T17:16:54.182Z,97.99
2022-12-03T17:19:56.484Z,97.92
2022-12-03T17:23:00.095Z,97.55
2022-12-03T17:26:02.416Z,97.51
2022-12-03T17:29:04.754Z,97.90
2022-12-03T17:32:06.799Z,98.01
2022-12-03T17:35:12.632Z,98.38
2022-12-03T17:38:15.036Z,98.57
2022-12-03T17:41:19.046Z,98.40
2022-12-03T17:44:21.564Z,98.32
2022-12-03T17:47:23.883Z,98.30
2022-12-03T17:50:25.854Z,98.63
2022-12-03T17:53:28.275Z,98.54
2022-12-03T17:56:30.264Z,99.25
2022-12-03T17:59:32.510Z,99.15
2022-12-03T18:02:36.799Z,99.04
2022-12-03T18:05:39.169Z,99.01
2022-12-03T18:08:41.077Z,99.16
2022-12-03T18:11:43.859Z,99.05
2022-12-03T18:14:46.128Z,99.75
2022-12-03T18:17:48.433Z,99.64
2022-12-03T18:20:51.572Z,99.52
2022-12-03T18:23:54.448Z,99.79
2022-12-03T18:26:56.375Z,99.86
2022-12-03T18:29:58.709Z,99.58
2022-12-03T18:33:00.686Z,99.82
2022-12-03T18:36:03.125Z,99.42
2022-12-03T18:39:06.129Z,99.93
2022-12-03T18:42:14.589Z,100.00
2022-12-03T18:45:17.673Z,100.00
2022-12-03T18:48:19.941Z,100.00
2022-12-03T18:51:24.825Z,100.00
2022-12-03T18:54:27.018Z,100.00
2022-12-03T18:57:29.302Z,100.00
2022-12-03T19:00:32.087Z,100.00
2022-12-03T19:03:34.182Z,100.00
2022-12-03T19:06:37.134Z,100.00
2022-12-03T19:09:39.566Z,100.00
2022-12-03T19:12:41.817Z,100.00
2022-12-03T19:15:43.801Z,100.00
2022-12-03T19:18:46.267Z,100.00
2022-12-03T19:21:48.298Z,100.00
2022-12-03T19:24:50.520Z,100.00
2022-12-03T19:27:56.626Z,100.00
2022-12-03T19:31:03.018Z,100.00
2022-12-03T19:34:04.993Z,100.00
2022-12-03T19:37:07.243Z,100.00
2022-12-03T19:40:10.389Z,100.00
2022-12-03T19:43:12.778Z,100.00
2022-12-03T19:46:14.885Z,100.00
2022-12-03T19:49:20.763Z,100.00
2022-12-03T19:52:22.748Z,100.00
2022-12-03T19:55:25.285Z,100.00
2022-12-03T19:58:27.180Z,100.00
2022-12-03T20:01:31.382Z,100.00
2022-12-03T20:04:33.740Z,100.00
2022-12-03T20:07:35.738Z,100.00
2022-12-03T20:10:38.161Z,100.00
2022-12-03T20:13:40.955Z,100.00
2022-12-03T20:16:43.971Z,100.00
2022-12-03T20:19:45.974Z,99.88
2022-12-03T20:22:48.297Z,100.00
2022-12-03T20:25:50.225Z,100.00
2022-12-03T20:28:53.515Z,99.93
2022-12-03T20:31:55.514Z,100.00
2022-12-03T20:34:57.813Z,99.92
2022-12-03T20:37:59.845Z,100.00
2022-12-03T20:41:07.114Z,100.00
2022-12-03T20:44:09.726Z,100.00
2022-12-03T20:47:11.935Z,100.00
2022-12-03T20:50:13.854Z,99.80
2022-12-03T20:53:24.664Z,100.00
2022-12-03T20:56:39.289Z,100.00
2022-12-03T20:59:41.676Z,99.61
2022-12-03T21:02:43.818Z,99.80
2022-12-03T21:05:46.208Z,100.00
2022-12-03T21:08:48.620Z,99.67
2022-12-03T21:11:50.942Z,99.70
2022-12-03T21:15:01.485Z,100.00
2022-12-03T21:18:03.839Z,100.00
2022-12-03T21:21:06.747Z,100.00
2022-12-03T21:24:10.402Z,100.00
2022-12-03T21:27:14.586Z,100.00
2022-12-03T21:30:20.654Z,100.00
2022-12-03T21:33:22.572Z,100.00
2022-12-03T21:36:25.387Z,99.82
2022-12-03T21:39:27.459Z,99.87
2022-12-03T21:42:35.475Z,100.00
2022-12-03T21:45:42.321Z,100.00
2022-12-03T21:48:45.094Z,99.97
2022-12-03T21:51:47.091Z,100.00
2022-12-03T21:54:52.172Z,100.00
2022-12-03T21:57:54.325Z,99.83
2022-12-03T22:00:56.639Z,99.49
2022-12-03T22:03:59.052Z,99.53
2022-12-03T22:07:01.228Z,99.50
2022-12-03T22:10:04.384Z,100.00
2022-12-03T22:13:06.431Z,99.98
2022-12-03T22:16:14.720Z,98.87
2022-12-03T22:19:16.678Z,100.00
2022-12-03T22:22:19.995Z,100.00
2022-12-03T22:25:22.312Z,100.00
2022-12-03T22:28:24.507Z,100.00
2022-12-03T22:31:26.561Z,100.00
2022-12-03T22:34:28.916Z,100.00
2022-12-03T22:37:32.788Z,100.00
2022-12-03T22:40:35.241Z,100.00
2022-12-03T22:43:37.180Z,100.00
2022-12-03T22:46:39.778Z,100.00
2022-12-03T22:49:41.895Z,100.00
2022-12-03T22:52:44.434Z,100.00
2022-12-03T22:55:54.142Z,100.00
2022-12-03T22:58:56.834Z,100.00
2022-12-03T23:02:01.265Z,100.00
2022-12-03T23:05:03.659Z,100.00
2022-12-03T23:08:07.928Z,100.00
2022-12-03T23:11:10.563Z,100.00
2022-12-03T23:14:12.882Z,100.00
2022-12-03T23:17:15.379Z,100.00
2022-12-03T23:20:17.530Z,100.00
2022-12-03T23:23:20.861Z,100.00
2022-12-03T23:26:22.800Z,100.00
2022-12-03T23:29:25.084Z,100.00
2022-12-03T23:32:28.325Z,100.00
2022-12-03T23:35:31.073Z,100.00
2022-12-03T23:38:33.109Z,100.00
2022-12-03T23:41:36.124Z,100.00
2022-12-03T23:44:38.185Z,100.00
2022-12-03T23:47:41.624Z,100.00
2022-12-03T23:50:43.783Z,100.00
2022-12-03T23:53:46.149Z,100.00
2022-12-03T23:56:48.233Z,100.00
2022-12-03T23:59:50.567Z,100.00
